GTI25 KSEA-KGEG
Flight info
| Callsign | GTI25 |
|---|---|
| Flight time | 0h 42m |
| Altitude | 29000 |
| Route | MONTN2 SEA ZADON ZELAK ZIRAN ZOOMR ZOOMR2 |
| Aircraft | B738/M-SDE2E3FGHIRWXY/LB1 |
Departure
| Time | 2026-05-06 04:48 |
|---|---|
| Airport | Seattle–Tacoma International Airport (KSEA) |
Arrival
| Time | 2026-05-06 05:31 |
|---|---|
| Airport | Spokane International Airport (KGEG) |
| Time | Latitude | Longitude | Altitude | Speed | Heading |
|---|---|---|---|---|---|
| 2026-05-06 04:28 | 47.45687 | -122.30225 | 383 ft | 0 kts | 106° |
| 2026-05-06 04:40 | 47.45693 | -122.30251 | 383 ft | 4 kts | 112° |
| 2026-05-06 04:40 | 47.45703 | -122.30287 | 383 ft | 4 kts | 113° |
| 2026-05-06 04:41 | 47.45710 | -122.30316 | 383 ft | 4 kts | 98° |
| 2026-05-06 04:41 | 47.45709 | -122.30355 | 383 ft | 4 kts | 88° |
| 2026-05-06 04:41 | 47.45709 | -122.30364 | 383 ft | 1 kts | 92° |
| 2026-05-06 04:43 | 47.45711 | -122.30358 | 383 ft | 2 kts | 62° |
| 2026-05-06 04:44 | 47.45718 | -122.30301 | 383 ft | 0 kts | 109° |
| 2026-05-06 04:44 | 47.45703 | -122.30288 | 383 ft | 6 kts | 160° |
| 2026-05-06 04:44 | 47.45691 | -122.30288 | 383 ft | 3 kts | 194° |
| 2026-05-06 04:44 | 47.45697 | -122.30348 | 383 ft | 12 kts | 293° |
| 2026-05-06 04:45 | 47.45715 | -122.30509 | 383 ft | 14 kts | 285° |
| 2026-05-06 04:45 | 47.45722 | -122.30530 | 383 ft | 5 kts | 292° |
| 2026-05-06 04:45 | 47.45756 | -122.30619 | 383 ft | 12 kts | 328° |
| 2026-05-06 04:45 | 47.45835 | -122.30626 | 383 ft | 11 kts | 1° |
| 2026-05-06 04:46 | 47.45924 | -122.30623 | 383 ft | 14 kts | 1° |
| 2026-05-06 04:46 | 47.46035 | -122.30619 | 383 ft | 18 kts | 0° |
| 2026-05-06 04:46 | 47.46174 | -122.30618 | 383 ft | 21 kts | 1° |
| 2026-05-06 04:46 | 47.46322 | -122.30616 | 383 ft | 21 kts | 1° |
| 2026-05-06 04:47 | 47.46368 | -122.30646 | 383 ft | 5 kts | 298° |
| 2026-05-06 04:47 | 47.46361 | -122.30722 | 383 ft | 12 kts | 237° |
| 2026-05-06 04:47 | 47.46254 | -122.30773 | 383 ft | 21 kts | 187° |
| 2026-05-06 04:47 | 47.46041 | -122.30780 | 383 ft | 57 kts | 180° |
| 2026-05-06 04:48 | 47.45365 | -122.30785 | 383 ft | 134 kts | 180° |
| 2026-05-06 04:48 | 47.44251 | -122.30779 | 626 ft | 177 kts | 180° |
| 2026-05-06 04:48 | 47.42998 | -122.30719 | 1640 ft | 182 kts | 179° |
| 2026-05-06 04:48 | 47.41769 | -122.30512 | 2714 ft | 180 kts | 161° |
| 2026-05-06 04:49 | 47.40681 | -122.29419 | 3376 ft | 201 kts | 127° |
| 2026-05-06 04:49 | 47.40254 | -122.27411 | 3827 ft | 222 kts | 85° |
| 2026-05-06 04:49 | 47.40761 | -122.25163 | 4087 ft | 251 kts | 63° |
| 2026-05-06 04:49 | 47.41573 | -122.22765 | 4776 ft | 264 kts | 62° |
| 2026-05-06 04:50 | 47.42394 | -122.20307 | 5695 ft | 268 kts | 62° |
| 2026-05-06 04:50 | 47.43203 | -122.17807 | 6643 ft | 271 kts | 62° |
| 2026-05-06 04:50 | 47.44002 | -122.15269 | 7527 ft | 274 kts | 63° |
| 2026-05-06 04:50 | 47.44795 | -122.12694 | 8430 ft | 277 kts | 64° |
| 2026-05-06 04:51 | 47.45588 | -122.10073 | 9354 ft | 281 kts | 65° |
| 2026-05-06 04:51 | 47.46384 | -122.07415 | 10233 ft | 285 kts | 65° |
| 2026-05-06 04:51 | 47.47210 | -122.04645 | 10603 ft | 308 kts | 65° |
| 2026-05-06 04:51 | 47.48106 | -122.01621 | 10802 ft | 334 kts | 65° |
| 2026-05-06 04:52 | 47.48734 | -121.99495 | 11030 ft | 346 kts | 65° |
| 2026-05-06 04:52 | 47.49710 | -121.96174 | 11648 ft | 354 kts | 65° |
| 2026-05-06 04:52 | 47.51015 | -121.91719 | 12671 ft | 359 kts | 65° |
| 2026-05-06 04:52 | 47.51686 | -121.89424 | 13208 ft | 361 kts | 65° |
| 2026-05-06 04:53 | 47.52691 | -121.85986 | 13949 ft | 365 kts | 65° |
| 2026-05-06 04:53 | 47.53691 | -121.82562 | 14621 ft | 369 kts | 64° |
| 2026-05-06 04:53 | 47.54712 | -121.79060 | 15314 ft | 372 kts | 64° |
| 2026-05-06 04:53 | 47.55638 | -121.75463 | 16018 ft | 377 kts | 71° |
| 2026-05-06 04:54 | 47.56165 | -121.71629 | 16693 ft | 384 kts | 80° |
| 2026-05-06 04:54 | 47.56240 | -121.67642 | 17364 ft | 390 kts | 88° |
| 2026-05-06 04:54 | 47.56149 | -121.63595 | 18017 ft | 395 kts | 88° |
| 2026-05-06 04:54 | 47.56058 | -121.59508 | 18616 ft | 399 kts | 87° |
| 2026-05-06 04:55 | 47.55987 | -121.55369 | 19168 ft | 402 kts | 86° |
| 2026-05-06 04:55 | 47.55928 | -121.51217 | 19760 ft | 404 kts | 87° |
| 2026-05-06 04:55 | 47.55870 | -121.47040 | 20348 ft | 407 kts | 86° |
| 2026-05-06 04:55 | 47.55811 | -121.42898 | 20911 ft | 409 kts | 86° |
| 2026-05-06 04:56 | 47.55751 | -121.38671 | 21496 ft | 412 kts | 86° |
| 2026-05-06 04:56 | 47.55690 | -121.34414 | 22042 ft | 414 kts | 86° |
| 2026-05-06 04:56 | 47.55623 | -121.30135 | 22584 ft | 418 kts | 86° |
| 2026-05-06 04:56 | 47.55553 | -121.25814 | 23126 ft | 420 kts | 86° |
| 2026-05-06 04:57 | 47.55481 | -121.21489 | 23655 ft | 422 kts | 86° |
| 2026-05-06 04:57 | 47.55400 | -121.17137 | 24075 ft | 423 kts | 86° |
| 2026-05-06 04:57 | 47.55327 | -121.12774 | 24467 ft | 425 kts | 86° |
| 2026-05-06 04:57 | 47.55253 | -121.08374 | 24860 ft | 428 kts | 86° |
| 2026-05-06 04:58 | 47.55177 | -121.03954 | 25266 ft | 430 kts | 86° |
| 2026-05-06 04:58 | 47.55097 | -120.99512 | 25663 ft | 433 kts | 86° |
| 2026-05-06 04:58 | 47.55014 | -120.95052 | 26041 ft | 433 kts | 86° |
| 2026-05-06 04:58 | 47.54929 | -120.90581 | 26418 ft | 436 kts | 86° |
| 2026-05-06 04:59 | 47.54844 | -120.86077 | 26752 ft | 439 kts | 86° |
| 2026-05-06 04:59 | 47.54755 | -120.81591 | 26997 ft | 443 kts | 86° |
| 2026-05-06 04:59 | 47.54663 | -120.77018 | 27332 ft | 445 kts | 86° |
| 2026-05-06 04:59 | 47.54564 | -120.72413 | 27679 ft | 449 kts | 86° |
| 2026-05-06 05:00 | 47.54461 | -120.67793 | 28153 ft | 449 kts | 86° |
| 2026-05-06 05:00 | 47.54363 | -120.63181 | 28669 ft | 448 kts | 85° |
| 2026-05-06 05:00 | 47.54265 | -120.58568 | 28913 ft | 451 kts | 85° |
| 2026-05-06 05:01 | 47.54062 | -120.49270 | 28899 ft | 449 kts | 85° |
| 2026-05-06 05:01 | 47.53841 | -120.40076 | 28922 ft | 448 kts | 86° |
| 2026-05-06 05:02 | 47.53458 | -120.30865 | 28919 ft | 452 kts | 88° |
| 2026-05-06 05:02 | 47.52996 | -120.21584 | 28901 ft | 452 kts | 88° |
| 2026-05-06 05:03 | 47.52541 | -120.12335 | 28906 ft | 449 kts | 87° |
| 2026-05-06 05:03 | 47.52097 | -120.03141 | 28894 ft | 447 kts | 87° |
| 2026-05-06 05:04 | 47.51655 | -119.93995 | 28875 ft | 445 kts | 87° |
| 2026-05-06 05:04 | 47.51207 | -119.84836 | 28882 ft | 447 kts | 87° |
| 2026-05-06 05:05 | 47.50754 | -119.75713 | 28878 ft | 448 kts | 87° |
| 2026-05-06 05:05 | 47.50289 | -119.66516 | 28888 ft | 449 kts | 87° |
| 2026-05-06 05:06 | 47.49813 | -119.57288 | 28882 ft | 449 kts | 87° |
| 2026-05-06 05:06 | 47.49332 | -119.48098 | 28895 ft | 448 kts | 87° |
| 2026-05-06 05:07 | 47.48843 | -119.38912 | 28889 ft | 447 kts | 87° |
| 2026-05-06 05:07 | 47.48349 | -119.29750 | 28891 ft | 447 kts | 87° |
| 2026-05-06 05:08 | 47.47851 | -119.20641 | 28890 ft | 446 kts | 88° |
| 2026-05-06 05:08 | 47.47342 | -119.11477 | 28864 ft | 446 kts | 88° |
| 2026-05-06 05:08 | 47.47086 | -119.06923 | 28554 ft | 442 kts | 88° |
| 2026-05-06 05:09 | 47.46829 | -119.02414 | 28300 ft | 439 kts | 88° |
| 2026-05-06 05:09 | 47.46573 | -118.97924 | 28043 ft | 439 kts | 88° |
| 2026-05-06 05:09 | 47.46316 | -118.93433 | 27790 ft | 438 kts | 88° |
| 2026-05-06 05:09 | 47.46058 | -118.88953 | 27531 ft | 438 kts | 88° |
| 2026-05-06 05:10 | 47.45798 | -118.84466 | 27270 ft | 437 kts | 88° |
| 2026-05-06 05:10 | 47.45536 | -118.79991 | 26956 ft | 434 kts | 88° |
| 2026-05-06 05:10 | 47.45278 | -118.75626 | 26454 ft | 429 kts | 88° |
| 2026-05-06 05:10 | 47.45017 | -118.71258 | 25917 ft | 425 kts | 88° |
| 2026-05-06 05:11 | 47.44755 | -118.66875 | 25381 ft | 421 kts | 89° |
| 2026-05-06 05:11 | 47.44500 | -118.62635 | 24863 ft | 418 kts | 89° |
| 2026-05-06 05:11 | 47.44244 | -118.58374 | 24326 ft | 415 kts | 89° |
| 2026-05-06 05:11 | 47.43987 | -118.54131 | 23792 ft | 413 kts | 89° |
| 2026-05-06 05:12 | 47.43730 | -118.49908 | 23211 ft | 412 kts | 89° |
| 2026-05-06 05:12 | 47.43471 | -118.45703 | 22634 ft | 409 kts | 89° |
| 2026-05-06 05:12 | 47.43215 | -118.41543 | 22087 ft | 405 kts | 89° |
| 2026-05-06 05:12 | 47.42958 | -118.37420 | 21561 ft | 402 kts | 90° |
| 2026-05-06 05:13 | 47.42703 | -118.33328 | 21044 ft | 398 kts | 89° |
| 2026-05-06 05:13 | 47.42808 | -118.29296 | 20426 ft | 387 kts | 72° |
| 2026-05-06 05:13 | 47.43568 | -118.25508 | 19804 ft | 384 kts | 67° |
| 2026-05-06 05:13 | 47.44365 | -118.21854 | 19258 ft | 373 kts | 67° |
| 2026-05-06 05:14 | 47.45140 | -118.18260 | 18772 ft | 362 kts | 68° |
| 2026-05-06 05:14 | 47.45884 | -118.14747 | 18305 ft | 354 kts | 68° |
| 2026-05-06 05:14 | 47.46605 | -118.11298 | 17791 ft | 348 kts | 68° |
| 2026-05-06 05:14 | 47.47303 | -118.07924 | 17403 ft | 338 kts | 68° |
| 2026-05-06 05:15 | 47.47992 | -118.04584 | 16870 ft | 342 kts | 68° |
| 2026-05-06 05:15 | 47.48620 | -118.01538 | 16497 ft | 356 kts | 69° |
| 2026-05-06 05:15 | 47.49359 | -117.97951 | 16025 ft | 368 kts | 69° |
| 2026-05-06 05:16 | 47.50394 | -117.94603 | 15506 ft | 351 kts | 50° |
| 2026-05-06 05:16 | 47.52018 | -117.92052 | 15009 ft | 334 kts | 33° |
| 2026-05-06 05:16 | 47.53959 | -117.90281 | 14578 ft | 325 kts | 26° |
| 2026-05-06 05:16 | 47.55965 | -117.88706 | 14135 ft | 328 kts | 25° |
| 2026-05-06 05:17 | 47.57975 | -117.87172 | 13687 ft | 334 kts | 24° |
| 2026-05-06 05:17 | 47.60069 | -117.85572 | 13169 ft | 342 kts | 25° |
| 2026-05-06 05:17 | 47.62179 | -117.83942 | 12673 ft | 342 kts | 25° |
| 2026-05-06 05:17 | 47.64278 | -117.82304 | 12195 ft | 339 kts | 25° |
| 2026-05-06 05:18 | 47.66354 | -117.80672 | 11731 ft | 336 kts | 25° |
| 2026-05-06 05:18 | 47.68411 | -117.79050 | 11270 ft | 333 kts | 26° |
| 2026-05-06 05:18 | 47.70451 | -117.77437 | 10837 ft | 330 kts | 26° |
| 2026-05-06 05:18 | 47.72440 | -117.75860 | 10668 ft | 319 kts | 26° |
| 2026-05-06 05:19 | 47.74366 | -117.74332 | 10516 ft | 308 kts | 26° |
| 2026-05-06 05:19 | 47.76244 | -117.72842 | 10385 ft | 303 kts | 26° |
| 2026-05-06 05:19 | 47.78110 | -117.71362 | 10265 ft | 303 kts | 26° |
| 2026-05-06 05:19 | 47.79929 | -117.69917 | 10129 ft | 296 kts | 26° |
| 2026-05-06 05:20 | 47.81695 | -117.68511 | 9993 ft | 278 kts | 26° |
| 2026-05-06 05:20 | 47.83367 | -117.67179 | 9729 ft | 268 kts | 26° |
| 2026-05-06 05:20 | 47.84979 | -117.65895 | 9463 ft | 258 kts | 26° |
| 2026-05-06 05:20 | 47.86365 | -117.64265 | 9181 ft | 253 kts | 51° |
| 2026-05-06 05:21 | 47.87134 | -117.61953 | 8977 ft | 250 kts | 72° |
| 2026-05-06 05:21 | 47.87366 | -117.59377 | 8724 ft | 251 kts | 84° |
| 2026-05-06 05:21 | 47.87416 | -117.56785 | 8470 ft | 247 kts | 86° |
| 2026-05-06 05:21 | 47.87444 | -117.54258 | 8194 ft | 241 kts | 86° |
| 2026-05-06 05:22 | 47.87482 | -117.51792 | 7946 ft | 235 kts | 86° |
| 2026-05-06 05:22 | 47.87528 | -117.49416 | 7752 ft | 224 kts | 86° |
| 2026-05-06 05:22 | 47.87576 | -117.47127 | 7518 ft | 218 kts | 85° |
| 2026-05-06 05:22 | 47.87624 | -117.44938 | 7414 ft | 204 kts | 86° |
| 2026-05-06 05:23 | 47.87669 | -117.42892 | 7217 ft | 198 kts | 85° |
| 2026-05-06 05:23 | 47.87699 | -117.40882 | 7009 ft | 192 kts | 92° |
| 2026-05-06 05:23 | 47.86069 | -117.37978 | 6443 ft | 191 kts | 149° |
| 2026-05-06 05:24 | 47.84921 | -117.37004 | 6186 ft | 188 kts | 148° |
| 2026-05-06 05:24 | 47.83803 | -117.36048 | 5963 ft | 181 kts | 147° |
| 2026-05-06 05:24 | 47.82757 | -117.35158 | 5768 ft | 165 kts | 148° |
| 2026-05-06 05:24 | 47.81803 | -117.34347 | 5512 ft | 152 kts | 147° |
| 2026-05-06 05:25 | 47.80916 | -117.33592 | 5274 ft | 144 kts | 147° |
| 2026-05-06 05:25 | 47.80040 | -117.32845 | 5058 ft | 146 kts | 146° |
| 2026-05-06 05:25 | 47.79163 | -117.32099 | 5002 ft | 145 kts | 146° |
| 2026-05-06 05:25 | 47.78265 | -117.31333 | 4987 ft | 154 kts | 146° |
| 2026-05-06 05:26 | 47.77216 | -117.30896 | 4918 ft | 166 kts | 185° |
| 2026-05-06 05:26 | 47.76272 | -117.31850 | 4916 ft | 172 kts | 231° |
| 2026-05-06 05:26 | 47.75520 | -117.33201 | 4977 ft | 168 kts | 223° |
| 2026-05-06 05:26 | 47.74708 | -117.34417 | 4984 ft | 168 kts | 222° |
| 2026-05-06 05:27 | 47.73882 | -117.35650 | 4985 ft | 168 kts | 222° |
| 2026-05-06 05:27 | 47.73060 | -117.36881 | 4990 ft | 169 kts | 222° |
| 2026-05-06 05:27 | 47.72225 | -117.38131 | 4864 ft | 172 kts | 221° |
| 2026-05-06 05:27 | 47.71400 | -117.39373 | 4649 ft | 168 kts | 222° |
| 2026-05-06 05:28 | 47.70600 | -117.40576 | 4425 ft | 161 kts | 221° |
| 2026-05-06 05:28 | 47.69825 | -117.41742 | 4223 ft | 156 kts | 221° |
| 2026-05-06 05:28 | 47.69047 | -117.42910 | 4026 ft | 160 kts | 221° |
| 2026-05-06 05:28 | 47.68277 | -117.44084 | 3931 ft | 157 kts | 222° |
| 2026-05-06 05:29 | 47.67486 | -117.45245 | 3810 ft | 166 kts | 221° |
| 2026-05-06 05:29 | 47.66660 | -117.46454 | 3578 ft | 162 kts | 220° |
| 2026-05-06 05:29 | 47.65879 | -117.47629 | 3388 ft | 158 kts | 223° |
| 2026-05-06 05:29 | 47.65100 | -117.48811 | 3107 ft | 160 kts | 223° |
| 2026-05-06 05:30 | 47.64353 | -117.49940 | 2818 ft | 150 kts | 222° |
| 2026-05-06 05:30 | 47.63645 | -117.51020 | 2569 ft | 143 kts | 224° |
| 2026-05-06 05:30 | 47.62969 | -117.52051 | 2402 ft | 134 kts | 224° |
| 2026-05-06 05:30 | 47.62382 | -117.52933 | 2377 ft | 101 kts | 225° |
| 2026-05-06 05:31 | 47.62057 | -117.53469 | 2378 ft | 41 kts | 244° |
| 2026-05-06 05:31 | 47.62002 | -117.53740 | 2377 ft | 14 kts | 256° |
| 2026-05-06 05:31 | 47.61996 | -117.53777 | 2374 ft | 0 kts | 256° |
| 2026-05-06 05:32 | 47.61994 | -117.53792 | 2374 ft | 6 kts | 257° |
| 2026-05-06 05:32 | 47.62014 | -117.53850 | 2376 ft | 7 kts | 331° |
| 2026-05-06 05:33 | 47.62054 | -117.53839 | 2374 ft | 6 kts | 41° |
| 2026-05-06 05:33 | 47.62107 | -117.53766 | 2374 ft | 14 kts | 43° |
| 2026-05-06 05:33 | 47.62198 | -117.53639 | 2374 ft | 21 kts | 47° |
| 2026-05-06 05:33 | 47.62311 | -117.53453 | 2376 ft | 26 kts | 47° |
| 2026-05-06 05:34 | 47.62434 | -117.53269 | 2374 ft | 24 kts | 45° |
| 2026-05-06 05:34 | 47.62548 | -117.53097 | 2374 ft | 23 kts | 46° |
| 2026-05-06 05:34 | 47.62659 | -117.52933 | 2376 ft | 22 kts | 44° |
| 2026-05-06 05:34 | 47.62734 | -117.52832 | 2374 ft | 6 kts | 14° |
| 2026-05-06 05:35 | 47.62775 | -117.52821 | 2377 ft | 5 kts | 344° |
| 2026-05-06 05:35 | 47.62802 | -117.52860 | 2375 ft | 5 kts | 316° |
| 2026-05-06 05:35 | 47.62833 | -117.52874 | 2374 ft | 0 kts | 346° |